createdAt,value
2023-05-03T00:02:25.193Z,13.80
2023-05-03T00:05:01.125Z,13.82
2023-05-03T00:07:33.192Z,13.79
2023-05-03T00:10:06.929Z,13.83
2023-05-03T00:12:41.936Z,13.78
2023-05-03T00:15:14.436Z,13.76
2023-05-03T00:17:46.924Z,13.73
2023-05-03T00:20:19.403Z,13.65
2023-05-03T00:22:51.909Z,13.62
2023-05-03T00:25:24.197Z,13.61
2023-05-03T00:27:57.591Z,13.58
2023-05-03T00:30:32.428Z,13.57
2023-05-03T00:33:03.168Z,13.49
2023-05-03T00:35:35.589Z,13.44
2023-05-03T00:38:09.344Z,13.45
2023-05-03T00:40:42.046Z,13.39
2023-05-03T00:43:15.548Z,13.38
2023-05-03T00:45:48.241Z,13.35
2023-05-03T00:48:20.693Z,13.26
2023-05-03T00:50:54.479Z,13.13
2023-05-03T00:53:31.486Z,13.10
2023-05-03T00:56:05.971Z,13.06
2023-05-03T00:58:40.516Z,13.03
2023-05-03T01:01:12.139Z,13.04
2023-05-03T01:03:47.320Z,12.95
2023-05-03T01:06:32.111Z,12.91
2023-05-03T01:09:12.903Z,12.91
2023-05-03T01:11:54.882Z,12.84
2023-05-03T01:14:37.374Z,12.75
2023-05-03T01:17:13.634Z,12.68
2023-05-03T01:19:50.185Z,12.75
2023-05-03T01:22:30.361Z,12.70
2023-05-03T01:25:10.467Z,12.66
2023-05-03T01:27:44.269Z,12.61
2023-05-03T01:30:17.174Z,12.61
2023-05-03T01:32:57.536Z,12.63
2023-05-03T01:35:36.893Z,12.57
2023-05-03T01:38:10.506Z,12.53
2023-05-03T01:40:48.458Z,12.44
2023-05-03T01:43:22.265Z,12.41
2023-05-03T01:45:56.143Z,12.47
2023-05-03T01:48:29.414Z,12.41
2023-05-03T01:51:02.030Z,12.40
2023-05-03T01:53:34.254Z,12.34
2023-05-03T01:56:08.505Z,12.38
2023-05-03T01:58:41.058Z,12.35
2023-05-03T02:01:13.522Z,12.38
2023-05-03T02:03:46.377Z,12.34
2023-05-03T02:06:18.590Z,12.32
2023-05-03T02:08:51.104Z,12.35
2023-05-03T02:11:23.971Z,12.34
2023-05-03T02:13:56.532Z,12.30
2023-05-03T02:16:29.277Z,12.20
2023-05-03T02:19:02.605Z,12.06
2023-05-03T02:21:36.580Z,12.22
2023-05-03T02:24:09.639Z,12.16
2023-05-03T02:26:42.089Z,12.20
2023-05-03T02:29:15.727Z,12.19
2023-05-03T02:31:48.314Z,12.19
2023-05-03T02:34:20.925Z,12.16
2023-05-03T02:36:53.489Z,12.00
2023-05-03T02:39:26.751Z,12.09
2023-05-03T02:41:59.494Z,12.07
2023-05-03T02:44:33.720Z,12.04
2023-05-03T02:47:06.768Z,12.00
2023-05-03T02:49:40.326Z,11.99
2023-05-03T02:52:12.683Z,11.96
2023-05-03T02:54:47.105Z,11.94
2023-05-03T02:57:19.710Z,11.90
2023-05-03T02:59:52.412Z,11.88
2023-05-03T03:02:26.336Z,11.85
2023-05-03T03:04:58.804Z,11.83
2023-05-03T03:07:32.874Z,11.84
2023-05-03T03:10:05.604Z,11.82
2023-05-03T03:12:38.572Z,11.83
2023-05-03T03:15:13.507Z,11.82
2023-05-03T03:17:44.856Z,11.81
2023-05-03T03:20:17.547Z,11.86
2023-05-03T03:22:50.800Z,11.90
2023-05-03T03:25:23.298Z,11.89
2023-05-03T03:27:56.247Z,11.86
2023-05-03T03:30:28.790Z,11.86
2023-05-03T03:33:07.630Z,11.89
2023-05-03T03:35:42.957Z,11.89
2023-05-03T03:38:15.451Z,11.86
2023-05-03T03:40:54.444Z,11.95
2023-05-03T03:43:28.189Z,11.96
2023-05-03T03:46:01.026Z,12.01
2023-05-03T03:48:33.653Z,12.03
2023-05-03T03:51:06.232Z,12.02
2023-05-03T03:53:42.421Z,11.96
2023-05-03T03:56:15.148Z,11.90
2023-05-03T03:58:48.648Z,11.99
2023-05-03T04:01:21.493Z,12.07
2023-05-03T04:03:54.110Z,12.05
2023-05-03T04:06:27.346Z,12.01
2023-05-03T04:09:00.883Z,12.07
2023-05-03T04:11:34.848Z,12.17
2023-05-03T04:14:07.617Z,12.14
2023-05-03T04:16:40.559Z,12.21
2023-05-03T04:19:13.831Z,12.23
2023-05-03T04:21:46.935Z,12.18
2023-05-03T04:24:19.933Z,12.21
2023-05-03T04:26:52.509Z,12.17
2023-05-03T04:29:31.218Z,12.20
2023-05-03T04:32:04.224Z,12.17
2023-05-03T04:34:36.532Z,12.29
2023-05-03T04:37:09.749Z,12.32
2023-05-03T04:39:45.878Z,12.38
2023-05-03T04:42:18.379Z,12.32
2023-05-03T04:44:51.329Z,12.29
2023-05-03T04:47:25.580Z,12.30
2023-05-03T04:49:58.727Z,12.24
2023-05-03T04:52:31.099Z,12.24
2023-05-03T04:55:03.757Z,12.29
2023-05-03T04:57:36.748Z,12.28
2023-05-03T05:00:13.517Z,12.34
2023-05-03T05:02:49.289Z,12.30
2023-05-03T05:05:22.027Z,12.25
2023-05-03T05:07:54.851Z,12.30
2023-05-03T05:10:27.620Z,12.20
2023-05-03T05:13:02.848Z,12.21
2023-05-03T05:15:33.687Z,12.20
2023-05-03T05:18:06.286Z,12.30
2023-05-03T05:20:39.929Z,12.31
2023-05-03T05:23:12.699Z,12.29
2023-05-03T05:25:46.642Z,12.34
2023-05-03T05:28:19.109Z,12.32
2023-05-03T05:30:51.733Z,12.37
2023-05-03T05:33:24.895Z,12.32
2023-05-03T05:35:58.606Z,12.27
2023-05-03T05:38:31.145Z,12.24
2023-05-03T05:41:05.265Z,12.38
2023-05-03T05:43:39.004Z,12.41
2023-05-03T05:46:11.871Z,12.34
2023-05-03T05:48:44.444Z,12.33
2023-05-03T05:51:17.232Z,12.44
2023-05-03T05:53:49.495Z,12.49
2023-05-03T05:56:23.350Z,12.52
2023-05-03T05:58:56.228Z,12.46
2023-05-03T06:01:31.738Z,12.40
2023-05-03T06:04:03.154Z,12.48
2023-05-03T06:06:35.784Z,12.51
2023-05-03T06:09:17.239Z,12.63
2023-05-03T06:11:56.559Z,12.64
2023-05-03T06:14:30.547Z,12.72
2023-05-03T06:17:04.253Z,12.80
2023-05-03T06:19:36.899Z,12.69
2023-05-03T06:22:10.026Z,12.79
2023-05-03T06:24:42.502Z,12.84
2023-05-03T06:27:14.731Z,12.86
2023-05-03T06:29:47.330Z,12.94
2023-05-03T06:32:21.786Z,13.04
2023-05-03T06:34:54.356Z,13.08
2023-05-03T06:37:27.587Z,13.08
2023-05-03T06:40:00.002Z,13.03
2023-05-03T06:42:32.739Z,13.19
2023-05-03T06:45:12.903Z,13.31
2023-05-03T06:47:45.351Z,13.35
2023-05-03T06:50:17.854Z,13.40
2023-05-03T06:52:50.649Z,13.46
2023-05-03T06:55:22.977Z,13.49
2023-05-03T06:57:55.197Z,13.50
2023-05-03T07:00:27.871Z,13.51
2023-05-03T07:03:00.421Z,13.36
2023-05-03T07:05:33.180Z,13.16
2023-05-03T07:08:06.060Z,13.30
2023-05-03T07:10:38.683Z,13.42
2023-05-03T07:13:11.239Z,13.44
2023-05-03T07:15:45.834Z,13.39
2023-05-03T07:18:18.488Z,13.60
2023-05-03T07:20:51.569Z,13.75
2023-05-03T07:23:24.114Z,13.78
2023-05-03T07:25:56.523Z,13.73
2023-05-03T07:28:28.882Z,13.63
2023-05-03T07:31:01.065Z,13.59
2023-05-03T07:33:35.146Z,13.68
2023-05-03T07:36:07.929Z,13.91
2023-05-03T07:38:40.842Z,13.70
2023-05-03T07:41:13.158Z,14.12
2023-05-03T07:43:48.582Z,14.01
2023-05-03T07:46:20.835Z,14.01
2023-05-03T07:48:53.012Z,14.02
2023-05-03T07:51:25.458Z,14.05
2023-05-03T07:53:58.806Z,14.11
2023-05-03T07:56:31.878Z,14.21
2023-05-03T07:59:09.866Z,14.35
2023-05-03T08:01:42.907Z,14.39
2023-05-03T08:04:15.258Z,14.45
2023-05-03T08:06:47.946Z,14.23
2023-05-03T08:09:20.783Z,14.25
2023-05-03T08:11:52.957Z,14.45
2023-05-03T08:14:25.242Z,14.67
2023-05-03T08:16:57.335Z,14.61
2023-05-03T08:19:29.681Z,14.63
2023-05-03T08:22:03.414Z,14.77
2023-05-03T08:24:35.886Z,14.87
2023-05-03T08:27:08.325Z,14.79
2023-05-03T08:29:40.845Z,14.61
2023-05-03T08:32:12.988Z,14.86
2023-05-03T08:34:45.087Z,15.05
2023-05-03T08:37:17.164Z,14.88
2023-05-03T08:39:49.567Z,14.83
2023-05-03T08:42:23.822Z,14.92
2023-05-03T08:44:57.884Z,15.07
2023-05-03T08:47:33.574Z,15.28
2023-05-03T08:50:07.073Z,15.48
2023-05-03T08:52:40.878Z,15.64
2023-05-03T08:55:13.919Z,15.65
2023-05-03T08:57:46.569Z,15.83
2023-05-03T09:00:19.806Z,15.90
2023-05-03T09:02:52.343Z,15.82
2023-05-03T09:05:41.528Z,15.75
2023-05-03T09:08:16.592Z,15.77
2023-05-03T09:10:47.323Z,15.75
2023-05-03T09:13:19.475Z,15.83
2023-05-03T09:15:57.646Z,15.88
2023-05-03T09:18:30.722Z,15.89
2023-05-03T09:21:03.022Z,15.92
2023-05-03T09:23:35.328Z,16.00
2023-05-03T09:26:08.011Z,16.00
2023-05-03T09:28:44.920Z,16.00
2023-05-03T09:31:17.383Z,16.16
2023-05-03T09:33:49.716Z,16.40
2023-05-03T09:36:22.032Z,16.53
2023-05-03T09:38:56.087Z,16.70
2023-05-03T09:41:32.968Z,16.85
2023-05-03T09:44:05.396Z,16.72
2023-05-03T09:46:37.717Z,16.62
2023-05-03T09:49:10.608Z,16.49
2023-05-03T09:51:43.415Z,16.51
2023-05-03T09:54:18.121Z,16.61
2023-05-03T09:56:49.506Z,16.58
2023-05-03T09:59:21.863Z,16.57
2023-05-03T10:01:57.656Z,16.93
2023-05-03T10:04:33.114Z,17.08
2023-05-03T10:07:11.969Z,17.32
2023-05-03T10:09:46.753Z,17.57
2023-05-03T10:12:18.964Z,17.77
2023-05-03T10:14:53.812Z,17.87
2023-05-03T10:17:46.548Z,17.76
2023-05-03T10:20:30.106Z,17.59
2023-05-03T10:23:12.390Z,17.44
2023-05-03T10:26:17.282Z,17.34
2023-05-03T10:28:51.484Z,17.41
2023-05-03T10:31:48.056Z,17.55
2023-05-03T10:34:25.178Z,17.69
2023-05-03T10:36:57.390Z,17.92
2023-05-03T10:39:32.410Z,18.15
2023-05-03T10:42:08.018Z,18.38
2023-05-03T10:44:52.933Z,18.34
2023-05-03T10:47:26.643Z,18.24
2023-05-03T10:50:29.045Z,18.08
2023-05-03T10:53:01.476Z,17.79
2023-05-03T10:55:34.473Z,17.58
2023-05-03T10:58:14.230Z,17.53
2023-05-03T11:00:47.306Z,17.53
2023-05-03T11:03:40.791Z,17.85
2023-05-03T11:06:27.764Z,17.98
2023-05-03T11:09:00.119Z,18.09
2023-05-03T11:11:32.342Z,18.29
2023-05-03T11:14:05.027Z,18.45
2023-05-03T11:16:40.694Z,18.30
2023-05-03T11:19:13.464Z,17.99
2023-05-03T11:21:47.006Z,17.91
2023-05-03T11:24:19.090Z,17.72
2023-05-03T11:26:51.423Z,17.65
2023-05-03T11:29:25.398Z,17.60
2023-05-03T11:31:58.324Z,17.48
2023-05-03T11:34:31.322Z,17.48
2023-05-03T11:37:04.260Z,17.44
2023-05-03T11:39:37.322Z,17.37
2023-05-03T11:42:09.508Z,17.38
2023-05-03T11:44:41.825Z,17.38
2023-05-03T11:47:14.343Z,17.72
2023-05-03T11:49:55.465Z,17.89
2023-05-03T11:52:28.817Z,18.20
2023-05-03T11:55:02.963Z,18.38
2023-05-03T11:57:37.445Z,18.74
2023-05-03T12:00:18.704Z,18.70
2023-05-03T12:02:52.149Z,18.77
2023-05-03T12:05:25.910Z,18.61
2023-05-03T12:07:59.102Z,18.22
2023-05-03T12:10:36.045Z,17.93
2023-05-03T12:13:09.226Z,17.95
2023-05-03T12:15:43.785Z,17.96
2023-05-03T12:18:18.841Z,18.24
2023-05-03T12:23:34.635Z,18.41
2023-05-03T12:26:09.512Z,18.36
2023-05-03T12:28:42.480Z,18.42
2023-05-03T12:31:17.632Z,18.34
2023-05-03T12:34:11.316Z,18.13
2023-05-03T12:36:43.987Z,17.76
2023-05-03T12:39:16.986Z,17.69
2023-05-03T12:44:28.692Z,17.98
2023-05-03T12:47:01.825Z,18.16
2023-05-03T12:49:38.015Z,18.54
2023-05-03T12:52:36.441Z,18.78
2023-05-03T12:55:04.666Z,19.12
2023-05-03T12:57:37.998Z,19.40
2023-05-03T13:00:14.973Z,19.64
2023-05-03T13:05:34.684Z,19.35
2023-05-03T13:08:10.097Z,19.34
2023-05-03T13:10:44.020Z,19.19
2023-05-03T13:13:16.584Z,19.15
2023-05-03T13:15:49.579Z,19.20
2023-05-03T13:18:22.985Z,19.06
2023-05-03T13:20:55.191Z,19.26
2023-05-03T13:23:27.349Z,19.24
2023-05-03T13:25:59.614Z,19.17
2023-05-03T13:28:31.909Z,19.11
2023-05-03T13:31:04.094Z,19.00
2023-05-03T13:33:38.567Z,18.88
2023-05-03T13:36:11.841Z,18.88
2023-05-03T13:38:44.295Z,18.80
2023-05-03T13:41:16.491Z,18.68
2023-05-03T13:43:48.567Z,18.74
2023-05-03T13:46:20.964Z,18.66
2023-05-03T13:48:56.420Z,18.64
2023-05-03T13:51:29.070Z,18.62
2023-05-03T13:54:02.440Z,18.56
2023-05-03T13:56:35.509Z,18.46
2023-05-03T13:59:09.904Z,18.36
2023-05-03T14:01:43.454Z,18.27
2023-05-03T14:04:15.943Z,18.19
2023-05-03T14:06:48.774Z,18.10
2023-05-03T14:09:21.368Z,17.96
2023-05-03T14:11:55.931Z,17.90
2023-05-03T14:14:30.607Z,17.76
2023-05-03T14:17:03.144Z,17.63
2023-05-03T14:19:37.832Z,17.53
2023-05-03T14:22:10.245Z,17.45
2023-05-03T14:24:42.743Z,17.39
2023-05-03T14:27:16.893Z,17.32
2023-05-03T14:29:49.435Z,17.27
2023-05-03T14:32:23.267Z,17.19
2023-05-03T14:34:55.669Z,17.09
2023-05-03T14:37:28.564Z,17.03
2023-05-03T14:40:01.208Z,17.00
2023-05-03T14:42:34.151Z,17.09
2023-05-03T14:45:10.150Z,17.22
2023-05-03T14:47:46.066Z,17.41
2023-05-03T14:50:18.839Z,17.52
2023-05-03T14:52:51.692Z,17.77
2023-05-03T14:55:24.316Z,17.97
2023-05-03T14:57:57.362Z,17.76
2023-05-03T15:00:29.792Z,17.94
2023-05-03T15:03:02.425Z,17.91
2023-05-03T15:05:35.156Z,18.10
2023-05-03T15:08:08.008Z,18.26
2023-05-03T15:10:42.143Z,18.43
2023-05-03T15:13:15.297Z,18.47
2023-05-03T15:15:48.157Z,18.45
2023-05-03T15:18:20.476Z,18.39
2023-05-03T15:20:53.022Z,18.46
2023-05-03T15:23:25.308Z,18.44
2023-05-03T15:25:58.142Z,18.52
2023-05-03T15:28:30.256Z,18.53
2023-05-03T15:31:02.939Z,18.52
2023-05-03T15:33:41.017Z,18.41
2023-05-03T15:36:14.871Z,18.33
2023-05-03T15:38:47.383Z,18.41
2023-05-03T15:41:20.150Z,18.47
2023-05-03T15:43:52.660Z,18.48
2023-05-03T15:46:25.384Z,18.49
2023-05-03T15:48:57.833Z,18.55
2023-05-03T15:51:30.256Z,18.54
2023-05-03T15:54:02.928Z,18.47
2023-05-03T15:56:35.201Z,18.57
2023-05-03T15:59:07.600Z,18.61
2023-05-03T16:01:39.907Z,18.58
2023-05-03T16:04:12.333Z,18.45
2023-05-03T16:06:44.857Z,18.30
2023-05-03T16:09:19.091Z,18.09
2023-05-03T16:11:51.645Z,18.03
2023-05-03T16:14:24.863Z,17.98
2023-05-03T16:16:57.277Z,17.83
2023-05-03T16:19:29.562Z,17.80
2023-05-03T16:22:01.867Z,17.74
2023-05-03T16:24:35.017Z,17.60
2023-05-03T16:27:07.751Z,17.53
2023-05-03T16:29:39.953Z,17.50
2023-05-03T16:32:12.533Z,17.51
2023-05-03T16:34:44.738Z,17.55
2023-05-03T16:37:17.229Z,17.50
2023-05-03T16:39:49.969Z,17.55
2023-05-03T16:42:22.710Z,17.64
2023-05-03T16:44:55.132Z,17.74
2023-05-03T16:47:28.071Z,17.84
2023-05-03T16:50:00.804Z,17.93
2023-05-03T16:52:35.279Z,18.06
2023-05-03T16:55:09.139Z,18.20
2023-05-03T16:57:42.657Z,18.18
2023-05-03T17:00:16.534Z,18.12
2023-05-03T17:02:49.036Z,18.06
2023-05-03T17:05:21.413Z,18.04
2023-05-03T17:07:53.533Z,17.98
2023-05-03T17:10:26.879Z,17.95
2023-05-03T17:13:01.239Z,18.03
2023-05-03T17:15:34.085Z,18.06
2023-05-03T17:18:06.560Z,18.04
2023-05-03T17:20:39.208Z,18.03
2023-05-03T17:23:11.446Z,18.05
2023-05-03T17:25:44.487Z,18.09
2023-05-03T17:28:16.793Z,18.18
2023-05-03T17:30:49.609Z,18.21
2023-05-03T17:33:22.185Z,18.18
2023-05-03T17:35:54.521Z,18.32
2023-05-03T17:38:27.005Z,18.37
2023-05-03T17:41:03.852Z,18.43
2023-05-03T17:43:36.691Z,18.50
2023-05-03T17:46:13.741Z,18.56
2023-05-03T17:48:48.385Z,18.63
2023-05-03T17:51:20.761Z,18.74
2023-05-03T17:53:54.785Z,18.75
2023-05-03T17:56:27.080Z,18.59
2023-05-03T17:58:59.309Z,18.43
2023-05-03T18:01:31.754Z,18.29
2023-05-03T18:04:04.543Z,18.13
2023-05-03T18:06:36.996Z,17.96
2023-05-03T18:09:09.503Z,17.82
2023-05-03T18:11:44.954Z,17.63
2023-05-03T18:14:17.795Z,17.48
2023-05-03T18:16:50.766Z,17.34
2023-05-03T18:19:24.108Z,17.18
2023-05-03T18:21:56.246Z,17.05
2023-05-03T18:24:28.555Z,16.91
2023-05-03T18:27:00.979Z,16.80
2023-05-03T18:29:33.283Z,16.71
2023-05-03T18:32:05.714Z,16.61
2023-05-03T18:34:38.396Z,16.48
2023-05-03T18:37:10.901Z,16.35
2023-05-03T18:39:43.315Z,16.23
2023-05-03T18:42:17.656Z,16.17
2023-05-03T18:44:50.788Z,15.95
2023-05-03T18:47:23.527Z,15.95
2023-05-03T18:49:55.901Z,15.84
2023-05-03T18:52:28.529Z,15.74
2023-05-03T18:55:01.200Z,15.62
2023-05-03T18:57:33.414Z,15.54
2023-05-03T19:00:06.518Z,15.45
2023-05-03T19:02:38.538Z,15.36
2023-05-03T19:05:13.538Z,15.30
2023-05-03T19:07:48.951Z,15.22
2023-05-03T19:10:21.677Z,15.14
2023-05-03T19:12:55.914Z,15.07
2023-05-03T19:15:28.403Z,15.01
2023-05-03T19:18:00.729Z,14.96
2023-05-03T19:20:33.151Z,14.91
2023-05-03T19:23:06.502Z,14.87
2023-05-03T19:25:39.174Z,14.83
2023-05-03T19:28:11.870Z,14.78
2023-05-03T19:30:45.744Z,14.77
2023-05-03T19:33:17.915Z,14.72
2023-05-03T19:35:50.339Z,14.63
2023-05-03T19:38:22.862Z,14.56
2023-05-03T19:41:06.166Z,14.50
2023-05-03T19:43:38.887Z,14.41
2023-05-03T19:46:12.017Z,14.37
2023-05-03T19:48:44.306Z,14.32
2023-05-03T19:51:17.831Z,14.27
2023-05-03T19:53:50.272Z,14.21
2023-05-03T19:56:22.510Z,14.10
2023-05-03T19:58:55.503Z,14.15
2023-05-03T20:01:27.780Z,14.10
2023-05-03T20:04:00.243Z,14.04
2023-05-03T20:06:32.897Z,13.96
2023-05-03T20:09:05.245Z,13.90
2023-05-03T20:11:37.784Z,13.85
2023-05-03T20:14:10.659Z,13.79
2023-05-03T20:16:43.609Z,13.76
2023-05-03T20:19:16.380Z,13.72
2023-05-03T20:21:48.580Z,13.68
2023-05-03T20:24:22.135Z,13.64
2023-05-03T20:26:54.697Z,13.60
2023-05-03T20:29:27.412Z,13.55
2023-05-03T20:31:59.825Z,13.48
2023-05-03T20:34:32.174Z,13.42
2023-05-03T20:37:04.561Z,13.39
2023-05-03T20:39:37.020Z,13.36
2023-05-03T20:42:09.640Z,13.34
2023-05-03T20:44:43.060Z,13.28
2023-05-03T20:47:15.500Z,13.22
2023-05-03T20:49:48.052Z,13.10
2023-05-03T20:52:20.773Z,13.09
2023-05-03T20:54:53.063Z,13.13
2023-05-03T20:57:25.410Z,13.11
2023-05-03T20:59:57.940Z,13.11
2023-05-03T21:02:30.241Z,13.08
2023-05-03T21:05:03.179Z,13.05
2023-05-03T21:07:35.724Z,13.02
2023-05-03T21:10:09.335Z,13.00
2023-05-03T21:12:41.991Z,12.98
2023-05-03T21:15:15.139Z,12.96
2023-05-03T21:17:47.592Z,12.94
2023-05-03T21:20:20.136Z,12.94
2023-05-03T21:22:53.475Z,12.89
2023-05-03T21:25:26.413Z,12.87
2023-05-03T21:27:58.923Z,12.84
2023-05-03T21:30:31.849Z,12.82
2023-05-03T21:33:04.037Z,12.80
2023-05-03T21:35:37.140Z,12.79
2023-05-03T21:38:09.349Z,12.71
2023-05-03T21:40:42.016Z,12.75
2023-05-03T21:43:14.390Z,12.64
2023-05-03T21:45:48.284Z,12.69
2023-05-03T21:48:20.714Z,12.67
2023-05-03T21:50:53.362Z,12.64
2023-05-03T21:53:25.714Z,12.64
2023-05-03T21:55:58.080Z,12.60
2023-05-03T21:58:30.403Z,12.56
2023-05-03T22:01:03.664Z,12.52
2023-05-03T22:03:36.898Z,12.47
2023-05-03T22:06:10.076Z,12.42
2023-05-03T22:08:42.324Z,12.38
2023-05-03T22:11:14.651Z,12.34
2023-05-03T22:14:03.152Z,12.33
2023-05-03T22:16:36.224Z,12.32
2023-05-03T22:19:09.074Z,12.28
2023-05-03T22:21:41.730Z,12.26
2023-05-03T22:24:14.160Z,12.21
2023-05-03T22:26:46.478Z,12.16
2023-05-03T22:29:18.822Z,12.08
2023-05-03T22:31:51.825Z,12.02
2023-05-03T22:34:24.343Z,11.99
2023-05-03T22:36:57.166Z,11.88
2023-05-03T22:39:29.625Z,11.93
2023-05-03T22:42:01.951Z,11.91
2023-05-03T22:44:34.792Z,11.90
2023-05-03T22:47:08.519Z,11.77
2023-05-03T22:49:41.045Z,11.82
2023-05-03T22:52:13.653Z,11.78
2023-05-03T22:54:46.005Z,11.75
2023-05-03T22:57:18.493Z,11.74
2023-05-03T22:59:51.008Z,11.72
2023-05-03T23:02:23.583Z,11.71
2023-05-03T23:04:55.970Z,11.68
2023-05-03T23:07:28.677Z,11.64
2023-05-03T23:10:05.118Z,11.61
2023-05-03T23:12:37.790Z,11.59
2023-05-03T23:15:12.656Z,11.59
2023-05-03T23:17:45.375Z,11.57
2023-05-03T23:20:18.079Z,11.57
2023-05-03T23:22:50.122Z,11.54
2023-05-03T23:25:22.419Z,11.51
2023-05-03T23:27:54.712Z,11.47
2023-05-03T23:30:28.264Z,11.45
2023-05-03T23:33:01.237Z,11.42
2023-05-03T23:35:33.965Z,11.39
2023-05-03T23:38:06.417Z,11.38
2023-05-03T23:40:38.937Z,11.37
2023-05-03T23:43:11.372Z,11.35
2023-05-03T23:45:43.928Z,11.34
2023-05-03T23:48:16.624Z,11.32
2023-05-03T23:50:48.833Z,11.31
2023-05-03T23:53:20.994Z,11.29
2023-05-03T23:55:53.502Z,11.26
2023-05-03T23:58:26.128Z,11.23
